Pagrindinis puslapis
METAR-TAF:

METAR-TAF

Oro uostai :

Mont-de-Marsan, Prancūzija

platuma: 43-55N, ilguma: 000-30W, Aukštis: 62 m

Dabartinis oras

Ataskaita buvo paskelbta 36 minutes, ne 06:30 UTC
Vėjas 5 kt iš Vakarų/Šiaurės Vakarų, svyruoja nuo Vakarų/Pietvakarių ir Šiaurės Vakarų
Temperatūra 19°C
Drėgmė 88%
Slėgis 1013 hPa
Matomumas 10 km arba daugiau
Apsiniaukę ne aukštis 4000 ft

METAR: LFBM 200630Z AUTO 29005KT 250V310 9999 OVC040 19/17 Q1013 NOSIG

Laikas: 09:06 (07:06 UTC)

Prognozė

Ataskaita buvo paskelbta 5 valandos ir 6 minutes, ne 02:00 UTC
Prognozė galioja nuo 20 metu 03 UTC su 21 metu 03 UTC
Vėjas 5 kt iš Vakarų/Pietvakarių
Matomumas 10 km arba daugiau
nėra debesų žemiau 1500 m ir nėra kamuolinių lietaus debesų
Laikinai
nuo 20 metu 21 UTC su 21 metu 03 UTC
Matomumas: 4000 m
Mažai debesys ne aukštis 2000 ft, Liūtiniai kamuoliniai debesys.
Su prošvaistėmis ne aukštis 2500 ft
perkūnija, lietus,

TAF: LFBM 200200Z 2003/2103 24005KT CAVOK TEMPO 2021/2103 4000 TSRA FEW020CB BKN025

Orai ataskaitas ir orų prognozės (METAR, TAF).

turimą stotys yra geltonos ir raudonos taškus žemėlapyje.

Perkelti pele per norėdami pamatyti stoties vardą.

Tada spustelėkite, norėdami matyti oro stebėjimo ir prognozės.

Norėdami pakeisti žemėlapį: spustelėkite ant žalios mygtukų su juodo kryžiaus žemyn,; žalią mygtuką su brūkšneliu, jei norite nutolinti; arba žalių rodyklių gretimoms žemėlapius.


METAR-TAF: